createdAt,value
2022-08-04T00:00:40.417Z,64.93
2022-08-04T00:03:18.185Z,64.91
2022-08-04T00:06:04.667Z,63.85
2022-08-04T00:08:46.251Z,64.50
2022-08-04T00:11:19.840Z,64.68
2022-08-04T00:14:03.066Z,66.05
2022-08-04T00:16:37.769Z,65.84
2022-08-04T00:19:22.147Z,66.21
2022-08-04T00:21:56.694Z,67.18
2022-08-04T00:24:23.861Z,66.54
2022-08-04T00:26:54.034Z,67.18
2022-08-04T00:29:21.945Z,67.31
2022-08-04T00:31:56.497Z,67.17
2022-08-04T00:34:28.552Z,67.02
2022-08-04T00:36:56.538Z,67.96
2022-08-04T00:39:23.413Z,67.94
2022-08-04T00:41:57.057Z,68.50
2022-08-04T00:44:54.241Z,68.37
2022-08-04T00:47:40.405Z,68.31
2022-08-04T00:50:28.935Z,67.85
2022-08-04T00:53:14.451Z,69.15
2022-08-04T00:55:49.767Z,69.02
2022-08-04T00:58:50.420Z,69.49
2022-08-04T01:01:35.390Z,69.90
2022-08-04T01:04:22.329Z,71.13
2022-08-04T01:07:15.439Z,71.62
2022-08-04T01:09:57.106Z,71.18
2022-08-04T01:12:41.711Z,70.35
2022-08-04T01:15:23.009Z,70.40
2022-08-04T01:18:01.636Z,70.36
2022-08-04T01:20:35.037Z,70.33
2022-08-04T01:23:32.389Z,70.81
2022-08-04T01:26:43.855Z,70.93
2022-08-04T01:29:24.591Z,70.27
2022-08-04T01:32:04.765Z,69.42
2022-08-04T01:34:36.652Z,70.10
2022-08-04T01:37:18.494Z,69.88
2022-08-04T01:39:56.584Z,70.35
2022-08-04T01:42:31.612Z,69.66
2022-08-04T01:45:02.515Z,69.79
2022-08-04T01:47:30.794Z,69.79
2022-08-04T01:50:06.053Z,69.37
2022-08-04T01:52:34.960Z,69.13
2022-08-04T01:55:05.150Z,69.14
2022-08-04T01:57:38.637Z,68.73
2022-08-04T02:00:06.902Z,69.79
2022-08-04T02:02:34.252Z,70.00
2022-08-04T02:05:00.851Z,70.20
2022-08-04T02:07:40.440Z,69.84
2022-08-04T02:10:49.379Z,69.80
2022-08-04T02:13:28.316Z,71.13
2022-08-04T02:16:28.144Z,71.27
2022-08-04T02:19:19.939Z,71.84
2022-08-04T02:21:51.563Z,71.56
2022-08-04T02:24:24.447Z,71.88
2022-08-04T02:26:53.515Z,71.11
2022-08-04T02:29:29.223Z,71.67
2022-08-04T02:32:04.370Z,72.20
2022-08-04T02:34:47.909Z,73.75
2022-08-04T02:37:17.293Z,73.60
2022-08-04T02:39:48.451Z,72.91
2022-08-04T02:42:16.678Z,73.25
2022-08-04T02:44:43.402Z,73.73
2022-08-04T02:47:11.589Z,74.29
2022-08-04T02:49:41.236Z,74.52
2022-08-04T02:52:12.553Z,74.84
2022-08-04T02:54:40.999Z,74.26
2022-08-04T02:57:12.430Z,74.53
2022-08-04T02:59:51.600Z,74.40
2022-08-04T03:02:28.756Z,74.90
2022-08-04T03:05:02.510Z,75.39
2022-08-04T03:07:51.582Z,75.20
2022-08-04T03:10:55.264Z,76.15
2022-08-04T03:13:59.722Z,75.75
2022-08-04T03:16:51.797Z,76.84
2022-08-04T03:19:58.482Z,76.07
2022-08-04T03:23:12.121Z,77.49
2022-08-04T03:26:17.272Z,75.62
2022-08-04T03:29:08.316Z,76.43
2022-08-04T03:31:53.178Z,77.83
2022-08-04T03:35:02.653Z,76.83
2022-08-04T03:37:58.317Z,77.39
2022-08-04T03:40:30.514Z,77.09
2022-08-04T03:43:57.115Z,76.79
2022-08-04T03:46:25.735Z,77.93
2022-08-04T03:49:32.879Z,77.88
2022-08-04T03:52:55.174Z,78.53
2022-08-04T03:55:40.047Z,79.32
2022-08-04T03:58:52.678Z,79.64
2022-08-04T04:02:02.737Z,78.88
2022-08-04T04:05:03.938Z,79.61
2022-08-04T04:07:59.653Z,81.06
2022-08-04T04:10:51.670Z,79.52
2022-08-04T04:13:49.418Z,79.83
2022-08-04T04:16:58.064Z,79.98
2022-08-04T04:19:52.354Z,80.64
2022-08-04T04:22:53.762Z,79.19
2022-08-04T04:25:41.522Z,79.01
2022-08-04T04:28:43.494Z,78.86
2022-08-04T04:31:49.359Z,78.14
2022-08-04T04:34:35.299Z,78.36
2022-08-04T04:37:20.749Z,80.18
2022-08-04T04:40:03.375Z,80.17
2022-08-04T04:42:49.608Z,80.79
2022-08-04T04:45:34.463Z,81.06
2022-08-04T04:48:17.816Z,80.39
2022-08-04T04:50:47.096Z,81.18
2022-08-04T04:53:24.001Z,81.72
2022-08-04T04:56:05.606Z,82.66
2022-08-04T04:58:34.070Z,81.48
2022-08-04T05:01:09.374Z,81.11
2022-08-04T05:03:52.061Z,81.22
2022-08-04T05:06:54.352Z,80.49
2022-08-04T05:09:31.177Z,80.33
2022-08-04T05:14:24.848Z,76.70
2022-08-04T05:14:58.337Z,76.07
2022-08-04T05:17:33.740Z,75.18
2022-08-04T05:20:08.136Z,74.72
2022-08-04T05:22:56.812Z,72.87
2022-08-04T05:25:34.715Z,71.93
2022-08-04T05:28:12.144Z,70.34
2022-08-04T05:30:48.582Z,69.44
2022-08-04T05:33:31.236Z,68.00
2022-08-04T05:36:18.503Z,68.13
2022-08-04T05:38:59.987Z,68.46
2022-08-04T05:41:44.918Z,68.09
2022-08-04T05:44:15.084Z,67.04
2022-08-04T05:46:43.586Z,65.80
2022-08-04T05:49:10.766Z,64.38
2022-08-04T05:51:47.290Z,63.13
2022-08-04T05:54:15.167Z,62.84
2022-08-04T05:56:42.495Z,61.16
2022-08-04T05:59:12.642Z,59.14
2022-08-04T06:01:55.485Z,59.59
2022-08-04T06:04:31.229Z,57.64
2022-08-04T06:06:57.727Z,57.01
2022-08-04T06:09:24.343Z,56.54
2022-08-04T06:12:02.131Z,55.22
2022-08-04T06:14:39.446Z,54.55
2022-08-04T06:18:33.367Z,54.05
2022-08-04T06:19:59.898Z,53.66
2022-08-04T06:22:34.292Z,51.53
2022-08-04T06:25:02.814Z,51.31
2022-08-04T06:27:31.499Z,51.30
2022-08-04T06:29:59.843Z,50.06
2022-08-04T06:32:34.687Z,49.65
2022-08-04T06:35:05.019Z,49.26
2022-08-04T06:37:42.058Z,48.62
2022-08-04T06:40:31.702Z,48.11
2022-08-04T06:43:00.664Z,47.82
2022-08-04T06:45:27.772Z,47.62
2022-08-04T06:47:55.411Z,46.52
2022-08-04T06:51:25.475Z,46.35
2022-08-04T06:53:09.808Z,46.41
2022-08-04T06:55:37.233Z,45.14
2022-08-04T06:58:05.120Z,44.43
2022-08-04T07:00:32.376Z,43.54
2022-08-04T07:02:59.603Z,42.88
2022-08-04T07:05:26.678Z,42.86
2022-08-04T07:07:56.859Z,42.26
2022-08-04T07:10:28.450Z,42.01
2022-08-04T07:12:59.400Z,42.48
2022-08-04T07:15:26.671Z,41.25
2022-08-04T07:17:54.099Z,41.03
2022-08-04T07:20:34.556Z,40.10
2022-08-04T07:23:03.393Z,40.50
2022-08-04T07:26:00.705Z,40.18
2022-08-04T07:28:16.612Z,40.43
2022-08-04T07:30:44.824Z,39.62
2022-08-04T07:33:11.666Z,39.44
2022-08-04T07:36:04.858Z,39.96
2022-08-04T07:38:27.713Z,40.29
2022-08-04T07:40:55.414Z,39.71
2022-08-04T07:43:22.782Z,39.16
2022-08-04T07:45:49.490Z,39.51
2022-08-04T07:48:18.659Z,39.43
2022-08-04T07:50:45.482Z,38.30
2022-08-04T07:53:55.558Z,38.31
2022-08-04T07:56:02.162Z,38.61
2022-08-04T07:58:30.257Z,38.37
2022-08-04T08:00:57.677Z,38.48
2022-08-04T08:03:25.166Z,37.93
2022-08-04T08:06:16.408Z,37.21
2022-08-04T08:08:39.516Z,36.87
2022-08-04T08:11:07.177Z,37.26
2022-08-04T08:13:34.722Z,36.65
2022-08-04T08:16:01.597Z,36.46
2022-08-04T08:18:28.031Z,36.26
2022-08-04T08:20:55.391Z,36.51
2022-08-04T08:23:22.290Z,36.22
2022-08-04T08:25:49.321Z,34.99
2022-08-04T08:28:16.656Z,35.00
2022-08-04T08:30:43.222Z,35.49
2022-08-04T08:33:14.884Z,35.06
2022-08-04T08:35:54.704Z,35.56
2022-08-04T08:38:33.338Z,35.29
2022-08-04T08:41:30.630Z,35.15
2022-08-04T08:44:37.530Z,34.52
2022-08-04T08:48:05.487Z,33.46
2022-08-04T08:50:49.568Z,33.99
2022-08-04T08:53:36.114Z,32.40
2022-08-04T08:56:16.437Z,33.15
2022-08-04T08:59:01.741Z,33.03
2022-08-04T09:02:19.982Z,33.35
2022-08-04T09:04:59.127Z,31.88
2022-08-04T09:07:45.110Z,31.78
2022-08-04T09:10:41.073Z,31.56
2022-08-04T09:13:19.652Z,31.68
2022-08-04T09:16:10.369Z,31.29
2022-08-04T09:18:46.011Z,30.80
2022-08-04T09:21:33.343Z,32.22
2022-08-04T09:24:35.066Z,30.79
2022-08-04T09:27:09.812Z,31.43
2022-08-04T09:29:45.192Z,29.75
2022-08-04T09:32:23.538Z,30.64
2022-08-04T09:35:08.432Z,29.77
2022-08-04T09:37:45.888Z,30.70
2022-08-04T09:40:31.831Z,29.60
2022-08-04T09:43:57.124Z,31.46
2022-08-04T09:46:27.825Z,29.25
2022-08-04T09:49:02.567Z,29.26
2022-08-04T09:51:57.403Z,29.52
2022-08-04T09:54:44.145Z,28.93
2022-08-04T09:57:29.826Z,29.31
2022-08-04T10:00:05.390Z,29.18
2022-08-04T10:02:42.551Z,29.54
2022-08-04T10:05:16.250Z,28.18
2022-08-04T10:07:59.495Z,28.44
2022-08-04T10:10:56.556Z,28.90
2022-08-04T10:13:39.257Z,29.51
2022-08-04T10:16:29.634Z,27.91
2022-08-04T10:19:17.444Z,27.69
2022-08-04T10:22:26.927Z,27.46
2022-08-04T10:25:02.231Z,27.73
2022-08-04T10:27:44.629Z,27.94
2022-08-04T10:30:13.820Z,28.34
2022-08-04T10:33:03.903Z,27.39
2022-08-04T10:35:38.560Z,27.18
2022-08-04T10:38:30.831Z,27.99
2022-08-04T10:41:06.424Z,28.07
2022-08-04T10:43:35.518Z,28.41
2022-08-04T10:46:16.194Z,28.35
2022-08-04T10:49:07.364Z,29.04
2022-08-04T10:52:05.299Z,28.74
2022-08-04T10:54:53.583Z,28.71
2022-08-04T10:57:28.502Z,29.16
2022-08-04T11:00:09.624Z,29.53
2022-08-04T11:02:54.275Z,29.28
2022-08-04T11:05:27.235Z,28.51
2022-08-04T11:08:00.207Z,28.68
2022-08-04T11:10:32.994Z,29.22
2022-08-04T11:13:22.004Z,28.98
2022-08-04T11:16:00.534Z,29.93
2022-08-04T11:18:42.715Z,29.43
2022-08-04T11:21:21.357Z,29.22
2022-08-04T11:24:26.483Z,29.34
2022-08-04T11:27:03.827Z,29.36
2022-08-04T11:29:59.025Z,28.71
2022-08-04T11:33:01.066Z,29.52
2022-08-04T11:35:52.489Z,29.23
2022-08-04T11:38:21.516Z,29.91
2022-08-04T11:41:03.144Z,29.65
2022-08-04T11:44:01.662Z,30.03
2022-08-04T11:46:38.400Z,29.70
2022-08-04T11:49:11.829Z,29.30
2022-08-04T11:51:39.600Z,28.41
2022-08-04T11:54:06.457Z,27.86
2022-08-04T11:56:35.876Z,28.33
2022-08-04T11:59:07.582Z,27.82
2022-08-04T12:02:05.255Z,27.52
2022-08-04T12:04:50.153Z,27.81
2022-08-04T12:08:03.293Z,26.91
2022-08-04T12:10:57.557Z,27.14
2022-08-04T12:13:34.928Z,26.14
2022-08-04T12:16:14.882Z,25.62
2022-08-04T12:18:57.501Z,26.09
2022-08-04T12:21:39.610Z,26.72
2022-08-04T12:24:20.004Z,26.26
2022-08-04T12:26:53.936Z,25.91
2022-08-04T12:29:22.633Z,25.93
2022-08-04T12:32:10.289Z,26.60
2022-08-04T12:34:46.273Z,25.29
2022-08-04T12:37:34.835Z,25.63
2022-08-04T12:40:29.209Z,25.42
2022-08-04T12:43:23.359Z,25.97
2022-08-04T12:45:52.982Z,26.04
2022-08-04T12:48:21.553Z,25.32
2022-08-04T12:50:53.894Z,25.39
2022-08-04T12:53:31.917Z,24.84
2022-08-04T12:56:01.785Z,25.30
2022-08-04T12:58:42.306Z,25.49
2022-08-04T13:02:08.014Z,25.39
2022-08-04T13:04:15.319Z,25.16
2022-08-04T13:06:43.202Z,24.97
2022-08-04T13:09:18.571Z,25.31
2022-08-04T13:11:53.246Z,25.26
2022-08-04T13:14:27.014Z,24.84
2022-08-04T13:16:58.963Z,25.14
2022-08-04T13:19:27.062Z,25.03
2022-08-04T13:22:02.709Z,24.83
2022-08-04T13:24:33.651Z,24.77
2022-08-04T13:27:06.765Z,24.54
2022-08-04T13:29:59.401Z,24.79
2022-08-04T13:32:29.888Z,24.68
2022-08-04T13:34:59.837Z,24.59
2022-08-04T13:37:33.397Z,24.25
2022-08-04T13:40:03.439Z,25.17
2022-08-04T13:42:31.160Z,24.77
2022-08-04T13:45:00.943Z,24.14
2022-08-04T13:47:34.848Z,23.81
2022-08-04T13:50:15.332Z,23.83
2022-08-04T13:52:43.278Z,23.94
2022-08-04T13:55:24.849Z,23.34
2022-08-04T13:57:57.607Z,23.26
2022-08-04T14:00:30.200Z,22.88
2022-08-04T14:03:03.446Z,22.88
2022-08-04T14:05:59.559Z,23.23
2022-08-04T14:08:29.123Z,23.93
2022-08-04T14:10:58.628Z,23.58
2022-08-04T14:13:41.761Z,23.99
2022-08-04T14:16:20.289Z,23.50
2022-08-04T14:18:47.966Z,24.04
2022-08-04T14:21:17.384Z,23.99
2022-08-04T14:24:10.273Z,23.34
2022-08-04T14:26:37.086Z,23.50
2022-08-04T14:29:28.713Z,23.66
2022-08-04T14:32:10.768Z,23.59
2022-08-04T14:34:41.424Z,23.91
2022-08-04T14:37:17.297Z,24.16
2022-08-04T14:40:17.998Z,24.05
2022-08-04T14:42:55.475Z,24.03
2022-08-04T14:45:55.535Z,24.10
2022-08-04T14:48:22.747Z,24.19
2022-08-04T14:50:50.324Z,24.00
2022-08-04T14:53:20.654Z,24.18
2022-08-04T14:55:54.403Z,24.30
2022-08-04T14:58:33.911Z,24.21
2022-08-04T15:01:10.789Z,24.49
2022-08-04T15:03:51.012Z,24.11
2022-08-04T15:06:26.248Z,24.58
2022-08-04T15:08:55.417Z,24.38
2022-08-04T15:11:24.335Z,23.87
2022-08-04T15:13:56.014Z,24.51
2022-08-04T15:16:23.690Z,24.53
2022-08-04T15:18:51.113Z,24.58
2022-08-04T15:21:22.448Z,24.37
2022-08-04T15:23:50.743Z,24.43
2022-08-04T15:26:23.959Z,25.23
2022-08-04T15:28:56.086Z,25.12
2022-08-04T15:32:05.881Z,24.77
2022-08-04T15:34:12.453Z,24.99
2022-08-04T15:36:56.844Z,24.81
2022-08-04T15:39:35.999Z,25.15
2022-08-04T15:42:21.935Z,25.39
2022-08-04T15:44:51.757Z,25.53
2022-08-04T15:47:18.604Z,25.30
2022-08-04T15:49:45.734Z,25.39
2022-08-04T15:52:18.340Z,25.63
2022-08-04T15:54:52.409Z,25.59
2022-08-04T15:58:09.418Z,25.91
2022-08-04T16:00:52.065Z,26.33
2022-08-04T16:03:53.094Z,26.24
2022-08-04T16:06:20.588Z,26.27
2022-08-04T16:08:52.542Z,25.92
2022-08-04T16:11:31.087Z,26.34
2022-08-04T16:13:58.802Z,26.58
2022-08-04T16:16:45.438Z,26.46
2022-08-04T16:19:18.767Z,26.36
2022-08-04T16:21:49.781Z,26.65
2022-08-04T16:24:22.170Z,26.78
2022-08-04T16:26:56.469Z,26.41
2022-08-04T16:29:23.140Z,27.08
2022-08-04T16:32:04.997Z,26.88
2022-08-04T16:34:32.380Z,27.21
2022-08-04T16:37:14.287Z,27.31
2022-08-04T16:39:50.049Z,27.53
2022-08-04T16:42:32.859Z,27.65
2022-08-04T16:45:08.251Z,28.03
2022-08-04T16:47:49.806Z,27.91
2022-08-04T16:50:18.276Z,28.07
2022-08-04T16:52:46.368Z,28.26
2022-08-04T16:55:15.815Z,28.47
2022-08-04T16:57:46.317Z,28.19
2022-08-04T17:00:12.896Z,28.42
2022-08-04T17:02:39.634Z,28.09
2022-08-04T17:05:38.507Z,27.77
2022-08-04T17:08:28.586Z,27.84
2022-08-04T17:10:53.787Z,28.09
2022-08-04T17:14:02.348Z,27.80
2022-08-04T17:16:23.748Z,28.08
2022-08-04T17:18:52.826Z,28.28
2022-08-04T17:21:26.141Z,27.86
2022-08-04T17:24:12.679Z,28.25
2022-08-04T17:26:42.074Z,28.50
2022-08-04T17:29:18.229Z,28.40
2022-08-04T17:31:46.636Z,28.39
2022-08-04T17:34:16.745Z,28.29
2022-08-04T17:36:45.876Z,28.51
2022-08-04T17:39:21.383Z,28.61
2022-08-04T17:41:49.111Z,29.02
2022-08-04T17:44:16.406Z,29.06
2022-08-04T17:46:48.149Z,29.06
2022-08-04T17:49:18.187Z,29.69
2022-08-04T17:52:05.104Z,29.79
2022-08-04T17:54:38.961Z,30.20
2022-08-04T17:57:21.605Z,30.08
2022-08-04T17:59:57.514Z,30.52
2022-08-04T18:02:32.346Z,30.04
2022-08-04T18:05:10.007Z,30.49
2022-08-04T18:08:40.082Z,31.02
2022-08-04T18:10:51.523Z,30.65
2022-08-04T18:13:27.188Z,30.68
2022-08-04T18:19:08.096Z,31.15
2022-08-04T18:21:34.550Z,32.16
2022-08-04T18:24:14.320Z,31.57
2022-08-04T18:26:41.895Z,31.88
2022-08-04T18:29:26.620Z,31.99
2022-08-04T18:31:58.121Z,33.65
2022-08-04T18:34:24.899Z,33.48
2022-08-04T18:36:57.306Z,34.05
2022-08-04T18:40:09.781Z,35.75
2022-08-04T18:42:14.747Z,35.67
2022-08-04T18:44:52.017Z,35.79
2022-08-04T18:47:23.020Z,36.94
2022-08-04T18:50:40.194Z,37.16
2022-08-04T18:52:45.231Z,37.87
2022-08-04T18:55:12.227Z,38.47
2022-08-04T18:57:58.879Z,37.40
2022-08-04T19:00:25.128Z,38.27
2022-08-04T19:02:52.251Z,38.48
2022-08-04T19:05:19.494Z,38.55
2022-08-04T19:08:01.940Z,39.55
2022-08-04T19:10:29.095Z,39.53
2022-08-04T19:12:56.098Z,39.63
2022-08-04T19:15:22.530Z,40.01
2022-08-04T19:18:01.107Z,40.75
2022-08-04T19:20:28.568Z,40.72
2022-08-04T19:24:32.864Z,40.79
2022-08-04T19:28:34.788Z,41.84
2022-08-04T19:31:06.875Z,42.86
2022-08-04T19:33:58.418Z,42.24
2022-08-04T19:36:21.108Z,42.51
2022-08-04T19:38:55.388Z,41.70
2022-08-04T19:41:22.431Z,41.75
2022-08-04T19:43:51.416Z,42.40
2022-08-04T19:46:17.894Z,42.32
2022-08-04T19:48:44.646Z,42.47
2022-08-04T19:51:27.818Z,42.06
2022-08-04T19:53:59.211Z,42.56
2022-08-04T19:56:30.947Z,42.55
2022-08-04T19:59:07.559Z,42.11
2022-08-04T20:01:37.077Z,42.54
2022-08-04T20:04:11.346Z,42.98
2022-08-04T20:06:37.887Z,43.07
2022-08-04T20:09:04.363Z,43.31
2022-08-04T20:11:50.899Z,43.51
2022-08-04T20:14:17.811Z,44.10
2022-08-04T20:16:46.344Z,43.02
2022-08-04T20:19:14.193Z,43.82
2022-08-04T20:21:55.299Z,43.92
2022-08-04T20:24:36.800Z,44.21
2022-08-04T20:27:07.787Z,43.72
2022-08-04T20:29:40.008Z,45.08
2022-08-04T20:32:09.712Z,44.70
2022-08-04T20:34:36.740Z,43.65
2022-08-04T20:37:03.181Z,43.54
2022-08-04T20:39:30.818Z,43.07
2022-08-04T20:41:57.714Z,42.44
2022-08-04T20:44:24.475Z,41.97
2022-08-04T20:46:51.170Z,42.25
2022-08-04T20:49:17.738Z,42.72
2022-08-04T20:51:44.303Z,43.41
2022-08-04T20:54:16.506Z,43.65
2022-08-04T20:56:50.499Z,44.13
2022-08-04T20:59:18.151Z,44.38
2022-08-04T21:01:45.344Z,45.67
2022-08-04T21:04:34.087Z,46.24
2022-08-04T21:07:05.660Z,45.99
2022-08-04T21:09:37.928Z,45.54
2022-08-04T21:12:10.712Z,47.71
2022-08-04T21:14:53.554Z,46.97
2022-08-04T21:17:20.861Z,46.54
2022-08-04T21:20:07.512Z,45.95
2022-08-04T21:22:39.179Z,46.31
2022-08-04T21:25:06.066Z,46.54
2022-08-04T21:27:35.773Z,46.79
2022-08-04T21:30:21.339Z,46.96
2022-08-04T21:32:51.463Z,47.89
2022-08-04T21:35:18.891Z,48.41
2022-08-04T21:37:56.694Z,48.39
2022-08-04T21:43:11.202Z,48.98
2022-08-04T21:45:38.232Z,49.88
2022-08-04T21:48:04.989Z,49.72
2022-08-04T21:50:31.409Z,50.28
2022-08-04T21:52:58.927Z,50.06
2022-08-04T21:56:05.158Z,50.32
2022-08-04T21:58:13.434Z,51.20
2022-08-04T22:00:40.597Z,51.78
2022-08-04T22:03:11.346Z,52.25
2022-08-04T22:05:56.535Z,51.49
2022-08-04T22:08:23.595Z,51.86
2022-08-04T22:10:56.096Z,51.75
2022-08-04T22:13:24.416Z,52.56
2022-08-04T22:16:10.941Z,52.52
2022-08-04T22:18:37.353Z,53.03
2022-08-04T22:21:11.816Z,53.05
2022-08-04T22:23:45.075Z,52.91
2022-08-04T22:26:26.967Z,53.36
2022-08-04T22:28:54.742Z,53.20
2022-08-04T22:31:23.984Z,53.34
2022-08-04T22:33:54.543Z,53.74
2022-08-04T22:36:24.657Z,55.14
2022-08-04T22:38:57.050Z,54.35
2022-08-04T22:41:33.782Z,54.06
2022-08-04T22:44:01.064Z,55.03
2022-08-04T22:46:30.152Z,55.73
2022-08-04T22:48:56.879Z,55.41
2022-08-04T22:51:23.976Z,56.84
2022-08-04T22:53:53.745Z,57.37
2022-08-04T22:56:37.832Z,57.48
2022-08-04T22:59:05.825Z,58.13
2022-08-04T23:01:59.283Z,57.79
2022-08-04T23:04:21.631Z,57.91
2022-08-04T23:06:49.959Z,58.53
2022-08-04T23:09:17.072Z,58.81
2022-08-04T23:11:43.931Z,57.52
2022-08-04T23:14:10.831Z,57.16
2022-08-04T23:16:40.829Z,58.71
2022-08-04T23:19:12.064Z,58.51
2022-08-04T23:21:47.752Z,58.82
2022-08-04T23:24:29.519Z,58.46
2022-08-04T23:26:56.928Z,58.38
2022-08-04T23:29:23.428Z,59.63
2022-08-04T23:31:59.653Z,59.88
2022-08-04T23:34:29.307Z,59.67
2022-08-04T23:36:56.299Z,60.20
2022-08-04T23:39:25.835Z,60.58
2022-08-04T23:42:14.892Z,60.75
2022-08-04T23:44:41.636Z,60.19
2022-08-04T23:47:08.139Z,60.64
2022-08-04T23:49:44.044Z,60.20
2022-08-04T23:52:27.710Z,61.40
2022-08-04T23:54:59.652Z,61.21
2022-08-04T23:58:06.503Z,60.27
